Time;durP1;ratioP1;P1;durP2;ratioP2;P2;SDS_P1;SDS_P2;PMS_P1;PMS_P2;Temp;Humidity;BMP_temperature;BMP_pressure;BME280_temperature;BME280_humidity;BME280_pressure;Samples;Min_cycle;Max_cycle;Signal;HPM_P1;HPM_P2
2023/09/23 00:00:56;;;;;;;2.00;0.70;;;15.30;99.90;;;;;;4913228;29;20597;-75
2023/09/23 00:03:23;;;;;;;1.73;0.70;;;15.30;99.90;;;;;;4915000;29;20617;-76
2023/09/23 00:05:50;;;;;;;2.10;1.00;;;15.30;99.90;;;;;;4929851;29;20590;-73
2023/09/23 00:08:18;;;;;;;1.57;0.70;;;15.30;99.90;;;;;;4913039;29;20649;-73
2023/09/23 00:10:45;;;;;;;1.70;0.80;;;15.30;99.90;;;;;;4914444;29;20590;-73
2023/09/23 00:13:11;;;;;;;3.53;0.80;;;15.30;99.90;;;;;;4919293;29;20625;-73
2023/09/23 00:15:41;;;;;;;2.00;0.80;;;15.30;99.90;;;;;;4933193;29;21215;-74
2023/09/23 00:18:08;;;;;;;2.90;0.70;;;15.20;99.90;;;;;;4932094;29;20220;-74
2023/09/23 00:20:34;;;;;;;1.50;0.70;;;15.20;99.90;;;;;;4932021;29;20612;-73
2023/09/23 00:23:02;;;;;;;1.90;0.80;;;15.20;99.90;;;;;;4947683;29;20669;-73
2023/09/23 00:25:28;;;;;;;2.13;0.80;;;15.20;99.90;;;;;;4947899;29;20604;-74
2023/09/23 00:27:53;;;;;;;1.40;0.73;;;15.20;99.90;;;;;;4933452;29;21095;-74
2023/09/23 00:30:22;;;;;;;1.90;0.90;;;15.20;99.90;;;;;;4931586;29;20595;-74
2023/09/23 00:32:48;;;;;;;1.90;1.00;;;15.20;99.90;;;;;;4916009;29;20260;-73
2023/09/23 00:35:14;;;;;;;1.90;0.80;;;15.10;99.90;;;;;;4932675;29;20703;-73
2023/09/23 00:37:42;;;;;;;1.53;0.70;;;15.10;99.90;;;;;;4917346;29;20676;-74
2023/09/23 00:40:17;;;;;;;2.13;0.63;;;15.10;99.90;;;;;;4935331;29;20588;-74
2023/09/23 00:42:47;;;;;;;2.03;0.73;;;15.10;99.90;;;;;;4919500;29;20612;-74
2023/09/23 00:45:15;;;;;;;1.70;0.80;;;15.10;99.90;;;;;;4919037;29;20621;-74
2023/09/23 00:47:45;;;;;;;4.43;1.00;;;15.00;99.90;;;;;;4935340;29;21230;-74
2023/09/23 00:50:22;;;;;;;1.50;0.70;;;14.90;99.90;;;;;;4934979;29;21242;-74
2023/09/23 00:52:51;;;;;;;1.90;0.70;;;14.90;99.90;;;;;;4935270;29;20623;-74
2023/09/23 00:55:22;;;;;;;1.90;0.80;;;14.80;99.90;;;;;;4934792;29;20998;-74
2023/09/23 00:57:59;;;;;;;2.37;0.97;;;14.80;99.90;;;;;;4903499;29;20643;-74
2023/09/23 01:00:27;;;;;;;3.10;1.17;;;14.70;99.90;;;;;;4936091;29;20581;-74
2023/09/23 01:02:55;;;;;;;4.00;1.33;;;14.70;99.90;;;;;;4934949;29;20609;-72
2023/09/23 01:05:23;;;;;;;2.30;1.00;;;14.70;99.90;;;;;;4933676;29;20604;-74
2023/09/23 01:07:49;;;;;;;1.90;0.90;;;14.60;99.90;;;;;;4951460;29;21013;-74
2023/09/23 01:10:18;;;;;;;1.90;0.90;;;14.60;99.90;;;;;;4950779;29;20592;-74
2023/09/23 01:12:47;;;;;;;2.17;0.80;;;14.60;99.90;;;;;;4937902;29;20889;-74
2023/09/23 01:15:15;;;;;;;1.70;0.80;;;14.50;99.90;;;;;;4931608;29;20656;-74
2023/09/23 01:17:40;;;;;;;1.65;0.70;;;14.50;99.90;;;;;;4934651;29;21073;-73
2023/09/23 01:20:09;;;;;;;2.57;1.10;;;14.50;99.90;;;;;;4919069;29;20205;-73
2023/09/23 01:22:35;;;;;;;2.97;1.13;;;14.50;99.90;;;;;;4919030;29;20215;-73
2023/09/23 01:25:01;;;;;;;1.30;0.70;;;14.50;99.90;;;;;;4934395;29;20569;-73
2023/09/23 01:27:27;;;;;;;1.67;0.90;;;14.50;99.90;;;;;;4918366;29;21183;-73
2023/09/23 01:29:54;;;;;;;1.70;0.80;;;14.50;99.90;;;;;;4934483;29;20184;-72
2023/09/23 01:32:45;;;;;;;1.50;1.10;;;14.50;99.90;;;;;;4918561;29;20188;-73
2023/09/23 01:35:12;;;;;;;2.28;0.90;;;14.60;99.90;;;;;;4918252;29;20666;-73
2023/09/23 01:37:38;;;;;;;3.40;1.30;;;14.60;99.90;;;;;;4934349;29;20264;-73
2023/09/23 01:40:05;;;;;;;1.67;0.73;;;14.60;99.90;;;;;;4935884;29;20591;-73
2023/09/23 01:42:33;;;;;;;2.77;0.70;;;14.60;99.90;;;;;;4950067;29;20581;-73
2023/09/23 01:44:59;;;;;;;2.23;1.07;;;14.50;99.90;;;;;;4933801;29;20596;-73
2023/09/23 01:47:25;;;;;;;2.17;0.80;;;14.60;99.90;;;;;;4950098;29;20813;-73
2023/09/23 01:49:51;;;;;;;1.50;0.70;;;14.50;99.90;;;;;;4933487;29;20597;-74
2023/09/23 01:52:17;;;;;;;1.70;0.77;;;14.60;99.90;;;;;;4918224;29;20597;-74
2023/09/23 01:54:47;;;;;;;2.17;0.90;;;14.50;99.90;;;;;;4933812;29;20648;-73
2023/09/23 01:57:16;;;;;;;2.25;0.80;;;14.50;99.90;;;;;;4935158;29;20181;-73
2023/09/23 01:59:45;;;;;;;1.73;0.80;;;14.50;99.90;;;;;;4949956;29;20172;-73
2023/09/23 02:02:11;;;;;;;2.60;0.70;;;14.50;99.90;;;;;;4950061;29;20656;-74
2023/09/23 02:04:40;;;;;;;3.53;0.60;;;14.40;99.90;;;;;;4933869;29;20764;-76
2023/09/23 02:07:07;;;;;;;1.50;0.80;;;14.40;99.90;;;;;;4934127;29;20240;-77
2023/09/23 02:09:37;;;;;;;2.13;0.80;;;14.30;99.90;;;;;;4934001;29;20592;-76
2023/09/23 02:12:06;;;;;;;3.83;0.70;;;14.30;99.90;;;;;;4949893;29;20700;-76
2023/09/23 02:14:33;;;;;;;1.83;0.70;;;14.30;99.90;;;;;;4933342;29;20687;-76
2023/09/23 02:16:58;;;;;;;1.60;0.70;;;14.20;99.90;;;;;;4934957;29;20585;-76
2023/09/23 02:19:25;;;;;;;2.43;0.80;;;14.20;99.90;;;;;;4949510;29;20176;-77
2023/09/23 02:21:51;;;;;;;3.70;0.90;;;14.20;99.90;;;;;;4949635;29;20233;-76
2023/09/23 02:24:19;;;;;;;3.88;1.20;;;14.10;99.90;;;;;;4933263;29;20630;-76
2023/09/23 02:26:45;;;;;;;1.93;0.83;;;14.10;99.90;;;;;;4949871;29;20654;-76
2023/09/23 02:29:16;;;;;;;2.25;1.05;;;14.10;99.90;;;;;;4933671;29;20189;-76
2023/09/23 02:31:48;;;;;;;2.77;0.80;;;14.00;99.90;;;;;;4933623;29;20215;-76
2023/09/23 02:34:18;;;;;;;4.40;1.00;;;14.00;99.90;;;;;;4933087;29;20613;-76
2023/09/23 02:36:50;;;;;;;3.13;0.90;;;14.00;99.90;;;;;;4901921;29;20577;-76
2023/09/23 02:39:19;;;;;;;2.67;0.90;;;13.90;99.90;;;;;;4933403;29;20600;-76
2023/09/23 02:41:49;;;;;;;2.28;1.00;;;13.90;99.90;;;;;;4934484;29;20192;-76
2023/09/23 02:44:19;;;;;;;2.92;0.90;;;13.90;99.90;;;;;;4933044;29;20463;-76
2023/09/23 02:46:49;;;;;;;3.25;0.90;;;13.90;99.90;;;;;;4933254;29;20212;-76
2023/09/23 02:49:16;;;;;;;2.13;0.90;;;13.90;99.90;;;;;;4933186;29;20192;-76
2023/09/23 02:51:44;;;;;;;2.57;0.70;;;13.90;99.90;;;;;;4933314;29;20181;-76
2023/09/23 02:54:13;;;;;;;3.20;0.75;;;13.80;99.90;;;;;;4933927;29;20617;-76
2023/09/23 02:56:42;;;;;;;1.83;0.80;;;13.80;99.90;;;;;;4933118;29;20192;-76
2023/09/23 02:59:13;;;;;;;2.40;1.20;;;13.80;99.90;;;;;;4934217;29;20607;-76
2023/09/23 03:01:45;;;;;;;1.67;0.80;;;13.80;99.90;;;;;;4932041;29;20232;-76
2023/09/23 03:04:19;;;;;;;2.25;0.80;;;13.70;99.90;;;;;;4932859;29;21014;-76
2023/09/23 03:07:01;;;;;;;2.87;0.80;;;13.70;99.90;;;;;;4932828;29;20184;-77
2023/09/23 03:09:32;;;;;;;2.33;0.80;;;13.70;99.90;;;;;;4933966;29;20589;-76
2023/09/23 03:11:59;;;;;;;2.27;1.00;;;13.70;99.90;;;;;;4916913;29;20526;-76
2023/09/23 03:14:35;;;;;;;1.83;0.90;;;13.70;99.90;;;;;;4932465;29;20625;-76
2023/09/23 03:17:03;;;;;;;1.50;0.70;;;13.70;99.90;;;;;;4932721;29;20195;-76
2023/09/23 03:19:31;;;;;;;1.88;1.05;;;13.70;99.90;;;;;;4933815;29;20952;-76
2023/09/23 03:21:58;;;;;;;3.47;0.82;;;13.70;99.90;;;;;;4916776;29;20340;-76
2023/09/23 03:24:29;;;;;;;2.45;0.93;;;13.70;99.90;;;;;;4933567;29;20204;-76
2023/09/23 03:26:58;;;;;;;3.50;0.80;;;13.70;99.90;;;;;;4916652;29;20224;-76
2023/09/23 03:29:29;;;;;;;6.07;0.82;;;13.60;99.90;;;;;;4916691;29;20180;-76
2023/09/23 03:31:55;;;;;;;3.47;1.00;;;13.60;99.90;;;;;;4916411;29;20173;-76
2023/09/23 03:34:21;;;;;;;1.67;0.80;;;13.60;99.90;;;;;;4931909;29;20616;-76
2023/09/23 03:36:47;;;;;;;1.97;0.70;;;13.60;99.90;;;;;;4936219;29;20598;-76
2023/09/23 03:39:13;;;;;;;1.95;0.95;;;13.60;99.90;;;;;;4929216;29;20209;-76
2023/09/23 03:41:41;;;;;;;2.10;0.90;;;13.60;99.90;;;;;;4933250;29;20196;-76
2023/09/23 03:44:10;;;;;;;2.10;0.70;;;13.60;99.90;;;;;;4916059;29;20196;-76
2023/09/23 03:46:37;;;;;;;1.60;0.70;;;13.60;99.90;;;;;;4932080;29;20185;-76
2023/09/23 03:49:03;;;;;;;2.87;0.83;;;13.60;99.90;;;;;;4933438;29;20184;-76
2023/09/23 03:51:28;;;;;;;2.20;1.00;;;13.60;99.90;;;;;;4940475;29;20184;-76
2023/09/23 03:53:54;;;;;;;1.80;0.90;;;13.60;99.90;;;;;;4900382;29;20193;-76
2023/09/23 03:56:24;;;;;;;2.87;0.90;;;13.60;99.90;;;;;;4916008;29;20317;-76
2023/09/23 03:58:52;;;;;;;2.53;0.70;;;13.50;99.90;;;;;;4948028;29;20193;-76
2023/09/23 04:01:20;;;;;;;3.58;0.90;;;13.50;99.90;;;;;;4931865;29;20188;-77
2023/09/23 04:03:45;;;;;;;2.22;0.90;;;13.50;99.90;;;;;;4916095;29;20204;-76
2023/09/23 04:06:11;;;;;;;2.53;0.80;;;13.50;99.90;;;;;;4916047;29;20185;-76
2023/09/23 04:08:37;;;;;;;1.87;0.80;;;13.50;99.90;;;;;;4931997;29;20200;-76
2023/09/23 04:11:05;;;;;;;2.87;0.70;;;13.50;99.90;;;;;;4933089;29;20510;-76
2023/09/23 04:13:31;;;;;;;4.17;0.90;;;13.50;99.90;;;;;;4934177;29;20633;-76
2023/09/23 04:16:03;;;;;;;3.53;0.93;;;13.50;99.90;;;;;;4935684;29;20640;-77
2023/09/23 04:18:30;;;;;;;3.28;0.85;;;13.50;99.90;;;;;;4935627;29;20585;-76
2023/09/23 04:20:56;;;;;;;4.82;1.00;;;13.50;99.90;;;;;;4936878;29;20185;-76
2023/09/23 04:23:22;;;;;;;5.67;0.87;;;13.50;99.90;;;;;;4935305;29;20201;-76
2023/09/23 04:25:49;;;;;;;4.83;1.00;;;13.50;99.90;;;;;;4919670;29;20585;-76
2023/09/23 04:28:16;;;;;;;3.22;0.80;;;13.50;99.90;;;;;;4939081;29;20219;-76
2023/09/23 04:30:42;;;;;;;2.40;0.75;;;13.50;99.90;;;;;;4935252;29;20181;-76
2023/09/23 04:33:07;;;;;;;2.97;0.90;;;13.40;99.90;;;;;;4928930;29;20399;-76
2023/09/23 04:35:34;;;;;;;2.63;1.20;;;13.50;99.90;;;;;;4925983;29;20213;-76
2023/09/23 04:38:00;;;;;;;3.42;1.10;;;13.50;99.90;;;;;;4936442;29;20181;-76
2023/09/23 04:40:26;;;;;;;2.60;0.80;;;13.50;99.90;;;;;;4903516;29;20178;-76
2023/09/23 04:42:52;;;;;;;2.70;1.00;;;13.50;99.90;;;;;;4934991;29;20200;-76
2023/09/23 04:45:20;;;;;;;3.23;0.90;;;13.50;99.90;;;;;;4920783;29;20208;-76
2023/09/23 04:47:50;;;;;;;4.50;1.10;;;13.50;99.90;;;;;;4917153;29;20180;-76
2023/09/23 04:50:22;;;;;;;3.00;0.95;;;13.40;99.90;;;;;;4916075;29;20601;-76
2023/09/23 04:52:50;;;;;;;2.20;1.00;;;13.50;99.90;;;;;;4911723;29;20232;-77
2023/09/23 04:55:16;;;;;;;3.67;0.80;;;13.50;99.90;;;;;;4934900;29;20523;-76
2023/09/23 04:57:42;;;;;;;2.53;0.90;;;13.50;99.90;;;;;;4918985;29;20185;-77
2023/09/23 05:00:16;;;;;;;2.40;0.80;;;13.50;99.90;;;;;;4936278;29;20655;-76
2023/09/23 05:02:42;;;;;;;4.07;0.88;;;13.40;99.90;;;;;;4934866;29;20719;-74
2023/09/23 05:05:09;;;;;;;2.33;0.83;;;13.40;99.90;;;;;;4935696;29;20275;-74
2023/09/23 05:07:37;;;;;;;1.30;0.60;;;13.50;99.90;;;;;;4935781;29;20756;-74
2023/09/23 05:10:05;;;;;;;1.77;0.77;;;13.50;99.90;;;;;;4934766;29;20192;-73
2023/09/23 05:12:31;;;;;;;2.10;1.00;;;13.50;99.90;;;;;;4934372;29;20193;-74
2023/09/23 05:14:57;;;;;;;2.97;0.80;;;13.40;99.90;;;;;;4935788;29;20537;-74
2023/09/23 05:17:26;;;;;;;2.60;0.80;;;13.40;99.90;;;;;;4918907;29;20280;-74
2023/09/23 05:19:52;;;;;;;2.13;0.90;;;13.40;99.90;;;;;;4914910;29;20586;-74
2023/09/23 05:22:19;;;;;;;2.50;0.90;;;13.40;99.90;;;;;;4916854;29;20593;-74
2023/09/23 05:24:48;;;;;;;4.03;1.00;;;13.40;99.90;;;;;;4898391;29;20629;-74
2023/09/23 05:27:14;;;;;;;2.40;0.80;;;13.40;99.90;;;;;;4916920;29;20617;-74
2023/09/23 05:29:42;;;;;;;2.65;1.00;;;13.50;99.90;;;;;;4915372;29;20181;-74
2023/09/23 05:32:10;;;;;;;3.20;0.80;;;13.50;99.90;;;;;;4916773;29;20201;-74
2023/09/23 05:34:39;;;;;;;2.73;0.70;;;13.40;99.90;;;;;;4916338;29;20213;-74
2023/09/23 05:37:06;;;;;;;3.70;0.95;;;13.40;99.90;;;;;;4915356;29;20636;-74
2023/09/23 05:39:34;;;;;;;2.00;0.70;;;13.50;99.90;;;;;;4916314;29;20239;-74
2023/09/23 05:42:02;;;;;;;2.33;1.00;;;13.50;99.90;;;;;;4905963;29;20625;-74
2023/09/23 05:44:27;;;;;;;2.90;0.80;;;13.50;99.90;;;;;;4916372;29;20652;-76
2023/09/23 05:46:53;;;;;;;3.47;0.90;;;13.50;99.90;;;;;;4916535;29;20615;-77
2023/09/23 05:49:19;;;;;;;2.73;0.67;;;13.50;99.90;;;;;;4916545;29;20593;-76
2023/09/23 05:51:45;;;;;;;1.97;0.80;;;13.60;99.90;;;;;;4916164;29;20648;-77
2023/09/23 05:54:11;;;;;;;2.08;0.90;;;13.60;99.90;;;;;;4915989;29;20232;-76
2023/09/23 05:56:37;;;;;;;2.35;0.90;;;13.60;99.90;;;;;;4915060;29;20209;-77
2023/09/23 05:59:03;;;;;;;6.17;0.90;;;13.70;99.90;;;;;;4915262;29;20193;-76
2023/09/23 06:01:29;;;;;;;2.50;1.00;;;13.70;99.90;;;;;;4925035;29;20647;-76
2023/09/23 06:03:56;;;;;;;1.40;0.80;;;13.80;99.90;;;;;;4917863;29;20623;-76
2023/09/23 06:06:22;;;;;;;3.00;1.30;;;13.90;99.90;;;;;;4918347;29;20542;-76
2023/09/23 06:08:50;;;;;;;3.43;1.00;;;13.90;99.90;;;;;;4915894;29;20593;-76
2023/09/23 06:11:17;;;;;;;3.30;1.17;;;13.90;99.90;;;;;;4913472;29;20510;-76
2023/09/23 06:13:43;;;;;;;2.77;1.10;;;14.00;99.90;;;;;;4915149;29;20652;-76
2023/09/23 06:16:09;;;;;;;2.83;0.83;;;14.00;99.90;;;;;;4915781;29;20651;-76
2023/09/23 06:18:34;;;;;;;3.30;0.98;;;14.10;99.90;;;;;;4914700;29;20544;-76
2023/09/23 06:21:02;;;;;;;3.13;1.00;;;14.10;99.90;;;;;;4925578;29;20169;-77
2023/09/23 06:23:28;;;;;;;2.00;1.00;;;14.10;99.90;;;;;;4934543;29;20243;-76
2023/09/23 06:26:00;;;;;;;2.07;1.10;;;14.10;99.90;;;;;;4934892;29;20580;-76
2023/09/23 06:28:27;;;;;;;2.10;0.97;;;14.20;99.90;;;;;;4917932;29;20700;-76
2023/09/23 06:30:52;;;;;;;2.07;1.00;;;14.20;99.90;;;;;;4915621;29;20646;-76
2023/09/23 06:33:19;;;;;;;2.30;1.10;;;14.20;99.90;;;;;;4928658;29;21030;-76
2023/09/23 06:35:45;;;;;;;3.60;1.40;;;14.20;99.90;;;;;;4917397;29;20264;-76
2023/09/23 06:38:12;;;;;;;3.33;1.47;;;14.30;99.90;;;;;;4917835;29;20660;-76
2023/09/23 06:40:38;;;;;;;3.70;1.30;;;14.30;99.90;;;;;;4933306;29;20581;-76
2023/09/23 06:43:04;;;;;;;4.50;1.00;;;14.40;99.90;;;;;;4927334;29;20614;-76
2023/09/23 06:45:30;;;;;;;3.03;1.50;;;14.40;99.90;;;;;;4922671;29;20596;-76
2023/09/23 06:47:56;;;;;;;5.33;1.27;;;14.50;99.90;;;;;;4924554;29;20586;-76
2023/09/23 06:50:22;;;;;;;2.90;0.93;;;14.50;99.90;;;;;;4925918;29;20594;-76
2023/09/23 06:52:48;;;;;;;2.53;1.00;;;14.60;99.90;;;;;;4931014;29;20287;-75
2023/09/23 06:55:13;;;;;;;3.00;1.10;;;14.70;99.90;;;;;;4933153;29;20217;-76
2023/09/23 06:57:39;;;;;;;3.10;0.90;;;14.80;99.90;;;;;;4932964;29;20604;-76
2023/09/23 07:00:07;;;;;;;4.90;0.80;;;15.00;99.90;;;;;;4934035;29;20220;-76
2023/09/23 07:02:33;;;;;;;1.90;0.87;;;15.10;99.90;;;;;;4933988;29;20205;-75
2023/09/23 07:05:00;;;;;;;2.50;0.90;;;15.20;99.90;;;;;;4916841;29;20639;-73
2023/09/23 07:07:27;;;;;;;3.40;1.10;;;15.30;99.90;;;;;;4916949;29;20616;-74
2023/09/23 07:09:53;;;;;;;2.27;1.00;;;15.50;99.90;;;;;;4934065;29;20593;-73
2023/09/23 07:12:19;;;;;;;2.60;0.97;;;15.60;99.90;;;;;;4917248;29;20624;-73
2023/09/23 07:14:45;;;;;;;6.20;1.17;;;15.80;99.90;;;;;;4933451;29;20680;-73
2023/09/23 07:17:11;;;;;;;2.60;0.70;;;16.00;99.90;;;;;;4916937;29;20220;-73
2023/09/23 07:19:36;;;;;;;2.80;0.90;;;16.30;99.90;;;;;;4933877;29;20176;-74
2023/09/23 07:22:02;;;;;;;2.90;1.00;;;16.80;99.90;;;;;;4933799;29;20184;-74
2023/09/23 07:24:29;;;;;;;4.50;0.97;;;17.10;99.90;;;;;;4932177;29;20609;-74
2023/09/23 07:26:57;;;;;;;3.50;1.10;;;17.40;99.90;;;;;;4916704;29;20621;-73
2023/09/23 07:29:23;;;;;;;2.13;0.90;;;17.70;99.90;;;;;;4932644;29;20589;-74
2023/09/23 07:31:49;;;;;;;3.90;1.23;;;18.40;99.90;;;;;;4933766;29;20593;-74
2023/09/23 07:34:15;;;;;;;4.03;0.90;;;19.10;99.90;;;;;;4933952;29;20640;-74
2023/09/23 07:36:42;;;;;;;2.43;0.77;;;20.00;99.90;;;;;;4933670;29;20208;-74
2023/09/23 07:39:08;;;;;;;3.67;0.70;;;21.00;99.90;;;;;;4911885;29;20186;-74
2023/09/23 07:41:34;;;;;;;3.93;1.07;;;22.10;99.90;;;;;;4914601;29;20589;-74
2023/09/23 07:44:00;;;;;;;2.97;0.90;;;23.10;99.90;;;;;;4914527;29;20617;-74
2023/09/23 07:46:25;;;;;;;5.57;1.23;;;24.00;99.90;;;;;;4912586;29;20585;-74
2023/09/23 07:48:51;;;;;;;4.53;0.70;;;25.10;99.90;;;;;;4933464;29;20185;-74
2023/09/23 07:51:17;;;;;;;5.20;0.70;;;25.90;99.90;;;;;;4900857;29;20237;-76
2023/09/23 07:53:42;;;;;;;2.60;0.60;;;26.60;99.90;;;;;;4915920;29;20577;-76
2023/09/23 07:56:09;;;;;;;1.67;0.60;;;27.30;99.90;;;;;;4933365;29;20210;-76
2023/09/23 07:58:35;;;;;;;1.93;0.70;;;27.90;99.90;;;;;;4931942;29;20211;-76
2023/09/23 08:01:01;;;;;;;2.57;0.60;;;28.60;99.90;;;;;;4916248;29;20612;-76
2023/09/23 08:03:28;;;;;;;1.93;0.60;;;29.10;99.90;;;;;;4900235;29;20197;-75
2023/09/23 08:05:53;;;;;;;1.60;0.60;;;29.70;99.90;;;;;;4931993;29;20183;-75
2023/09/23 08:08:19;;;;;;;4.70;0.70;;;30.20;99.90;;;;;;4933268;29;20596;-75
2023/09/23 08:10:45;;;;;;;4.37;0.70;;;30.80;99.90;;;;;;4933160;29;20651;-75
2023/09/23 08:13:11;;;;;;;1.50;0.60;;;31.30;99.90;;;;;;4932879;29;20215;-75
2023/09/23 08:15:37;;;;;;;1.90;0.70;;;31.80;99.90;;;;;;4916052;29;20267;-75
2023/09/23 08:18:03;;;;;;;1.40;0.60;;;32.40;99.90;;;;;;4916285;29;20184;-76
2023/09/23 08:20:29;;;;;;;1.70;0.60;;;32.80;99.90;;;;;;4931952;29;20199;-75
2023/09/23 08:22:55;;;;;;;2.47;0.87;;;33.20;99.90;;;;;;4933153;29;20670;-75
2023/09/23 08:25:21;;;;;;;2.20;0.63;;;33.60;99.90;;;;;;4932927;29;20749;-75
2023/09/23 08:27:47;;;;;;;2.33;0.63;;;33.80;99.90;;;;;;4933038;29;20703;-75
2023/09/23 08:30:16;;;;;;;2.00;0.67;;;34.00;99.50;;;;;;4927801;29;20186;-75
2023/09/23 08:32:42;;;;;;;3.13;0.77;;;34.20;98.40;;;;;;4914022;29;20951;-76
2023/09/23 08:35:08;;;;;;;3.33;0.70;;;34.50;97.00;;;;;;4923898;29;20652;-75
2023/09/23 08:37:35;;;;;;;2.17;0.60;;;34.60;95.70;;;;;;4933103;29;20616;-75
2023/09/23 08:40:05;;;;;;;2.90;0.70;;;34.50;93.60;;;;;;4933077;29;20185;-75
2023/09/23 08:42:31;;;;;;;2.23;0.60;;;34.30;92.80;;;;;;4933150;29;21148;-76
2023/09/23 08:44:58;;;;;;;2.83;0.60;;;34.10;91.50;;;;;;4932861;29;20647;-76
2023/09/23 08:47:24;;;;;;;3.47;0.70;;;33.80;90.00;;;;;;4915958;29;20191;-76
2023/09/23 08:49:51;;;;;;;2.33;0.60;;;33.30;87.00;;;;;;4932895;29;20681;-76
2023/09/23 08:52:17;;;;;;;3.10;0.70;;;32.70;85.60;;;;;;4915797;29;20602;-75
2023/09/23 08:54:46;;;;;;;1.90;0.60;;;31.90;83.40;;;;;;4931333;29;21145;-76
2023/09/23 08:57:12;;;;;;;1.93;0.67;;;31.20;82.50;;;;;;4932945;29;20600;-76
2023/09/23 08:59:39;;;;;;;2.23;0.70;;;30.50;83.20;;;;;;4916940;29;20601;-76
2023/09/23 09:02:05;;;;;;;1.83;0.60;;;29.90;83.10;;;;;;4919247;29;20181;-76
2023/09/23 09:04:31;;;;;;;2.53;0.50;;;29.20;82.80;;;;;;4928495;29;20989;-73
2023/09/23 09:06:57;;;;;;;2.17;0.60;;;28.50;82.40;;;;;;4917355;29;20262;-73
2023/09/23 09:09:23;;;;;;;2.13;0.60;;;28.00;83.40;;;;;;4917075;29;20651;-73
2023/09/23 09:11:50;;;;;;;2.13;0.50;;;27.50;84.30;;;;;;4915873;29;20593;-73
2023/09/23 09:14:16;;;;;;;1.57;0.60;;;27.00;85.50;;;;;;4929618;29;20654;-73
2023/09/23 09:16:42;;;;;;;2.33;0.80;;;26.60;86.40;;;;;;4949922;29;20632;-73
2023/09/23 09:19:08;;;;;;;2.50;0.53;;;26.50;89.70;;;;;;4929041;29;20645;-73
2023/09/23 09:21:34;;;;;;;2.63;0.50;;;26.70;91.20;;;;;;4935899;29;20620;-73
2023/09/23 09:24:00;;;;;;;2.93;0.60;;;27.10;92.20;;;;;;4935563;29;20280;-72
2023/09/23 09:26:26;;;;;;;2.50;0.60;;;27.60;92.90;;;;;;4935702;29;20636;-73
2023/09/23 09:28:52;;;;;;;2.00;0.60;;;27.80;91.60;;;;;;4934636;29;20588;-72
2023/09/23 09:31:18;;;;;;;3.77;0.70;;;27.70;90.30;;;;;;4918840;29;20189;-73
2023/09/23 09:33:47;;;;;;;2.00;0.70;;;27.40;88.90;;;;;;4934023;29;20201;-73
2023/09/23 09:36:20;;;;;;;1.97;0.70;;;27.40;89.90;;;;;;4936072;29;20194;-73
2023/09/23 09:38:51;;;;;;;1.83;0.60;;;27.60;90.70;;;;;;4935800;29;20582;-73
2023/09/23 09:41:30;;;;;;;1.70;0.60;;;27.80;90.00;;;;;;4935524;29;20966;-73
2023/09/23 09:44:00;;;;;;;2.00;0.60;;;27.70;89.20;;;;;;4918187;29;20683;-73
2023/09/23 09:46:30;;;;;;;2.07;0.60;;;27.90;90.40;;;;;;4918429;29;20640;-73
2023/09/23 09:48:57;;;;;;;4.20;0.70;;;28.40;91.40;;;;;;4935376;29;20736;-73
2023/09/23 09:51:25;;;;;;;3.33;0.60;;;29.10;92.30;;;;;;4935208;29;21382;-73
2023/09/23 09:53:51;;;;;;;4.53;0.60;;;29.80;92.10;;;;;;4948370;29;20698;-73
2023/09/23 09:56:19;;;;;;;1.70;0.77;;;30.50;92.20;;;;;;4918319;29;20582;-73
2023/09/23 09:58:48;;;;;;;1.43;0.60;;;31.20;91.20;;;;;;4933822;29;20601;-73
2023/09/23 10:01:14;;;;;;;2.23;0.70;;;31.60;88.70;;;;;;4935321;29;20995;-73
2023/09/23 10:03:42;;;;;;;2.63;0.70;;;31.90;87.40;;;;;;4933728;29;20631;-73
2023/09/23 10:06:08;;;;;;;1.50;0.57;;;32.20;84.20;;;;;;4935105;29;20212;-73
2023/09/23 10:08:38;;;;;;;1.90;0.60;;;32.00;81.00;;;;;;4918092;29;20607;-72
2023/09/23 10:11:07;;;;;;;2.20;0.63;;;31.60;75.20;;;;;;4934822;29;20264;-73
2023/09/23 10:13:34;;;;;;;3.40;0.70;;;30.90;74.10;;;;;;4934011;29;20662;-72
2023/09/23 10:16:12;;;;;;;2.70;0.60;;;30.40;74.20;;;;;;4934783;29;21215;-73
2023/09/23 10:18:40;;;;;;;3.20;0.60;;;30.20;74.70;;;;;;4934849;29;20603;-73
2023/09/23 10:21:06;;;;;;;1.60;0.70;;;29.80;75.00;;;;;;4934844;29;20648;-73
2023/09/23 10:23:35;;;;;;;2.10;0.60;;;29.40;74.80;;;;;;4949209;29;20624;-73
2023/09/23 10:26:14;;;;;;;2.83;0.80;;;29.20;76.90;;;;;;4926843;29;20651;-73
2023/09/23 10:28:40;;;;;;;1.50;0.60;;;29.10;76.60;;;;;;4917670;29;20947;-72
2023/09/23 10:31:13;;;;;;;1.80;0.90;;;29.10;78.60;;;;;;4934713;29;20583;-76
2023/09/23 10:33:39;;;;;;;1.93;0.50;;;29.00;77.10;;;;;;4934428;29;20641;-75
2023/09/23 10:36:06;;;;;;;2.50;0.60;;;28.70;74.90;;;;;;4933222;29;20591;-76
2023/09/23 10:38:38;;;;;;;1.80;0.60;;;28.20;73.20;;;;;;4934704;29;20191;-76
2023/09/23 10:41:04;;;;;;;3.10;1.90;;;27.60;72.00;;;;;;4934399;29;20592;-76
2023/09/23 10:43:31;;;;;;;1.73;0.60;;;27.10;72.10;;;;;;4932977;29;20720;-75
2023/09/23 10:45:58;;;;;;;2.27;0.50;;;26.50;72.50;;;;;;4934365;29;20640;-75
2023/09/23 10:48:25;;;;;;;3.50;0.60;;;26.10;74.20;;;;;;4933146;29;20593;-75
2023/09/23 10:50:51;;;;;;;1.73;0.60;;;25.90;77.30;;;;;;4916967;29;20616;-75
2023/09/23 10:53:21;;;;;;;4.70;0.70;;;25.80;77.30;;;;;;4916969;29;20719;-75
2023/09/23 10:55:48;;;;;;;2.00;0.80;;;25.60;76.90;;;;;;4933008;29;21045;-74
2023/09/23 10:58:14;;;;;;;2.80;1.57;;;25.30;76.10;;;;;;4934418;29;20636;-75
2023/09/23 11:00:41;;;;;;;2.67;0.90;;;25.10;77.10;;;;;;4932565;29;20628;-76
2023/09/23 11:03:07;;;;;;;2.20;0.90;;;25.10;79.10;;;;;;4932288;29;20617;-77
2023/09/23 11:05:37;;;;;;;2.60;0.80;;;25.10;80.00;;;;;;4933962;29;20740;-75
2023/09/23 11:08:18;;;;;;;2.00;0.70;;;25.10;79.90;;;;;;4946082;29;20629;-74
2023/09/23 11:10:45;;;;;;;1.80;0.80;;;25.00;79.50;;;;;;4914113;29;20612;-77
2023/09/23 11:13:12;;;;;;;1.97;0.60;;;24.90;80.80;;;;;;4933585;29;20715;-73
2023/09/23 11:15:44;;;;;;;1.40;0.70;;;25.00;81.80;;;;;;4949198;29;20652;-75
2023/09/23 11:18:19;;;;;;;2.70;0.63;;;25.10;83.00;;;;;;4945256;29;20689;-74
2023/09/23 11:20:46;;;;;;;2.37;0.60;;;25.30;81.70;;;;;;4929797;29;21007;-75
2023/09/23 11:23:13;;;;;;;2.27;0.80;;;25.50;82.30;;;;;;4932988;29;20640;-75
2023/09/23 11:25:46;;;;;;;2.93;0.70;;;25.60;82.00;;;;;;4916779;29;21295;-75
2023/09/23 11:28:23;;;;;;;2.00;0.70;;;25.70;79.80;;;;;;4933908;29;20581;-72
2023/09/23 11:30:50;;;;;;;1.73;0.60;;;25.80;79.30;;;;;;4933662;29;20636;-73
2023/09/23 11:33:16;;;;;;;1.80;0.80;;;26.00;80.20;;;;;;4938987;29;20624;-73
2023/09/23 11:35:43;;;;;;;2.10;0.63;;;26.10;80.10;;;;;;4933912;29;20676;-73
2023/09/23 11:38:10;;;;;;;1.70;0.60;;;26.30;79.90;;;;;;4916423;29;20595;-73
2023/09/23 11:40:36;;;;;;;1.80;1.00;;;26.40;80.10;;;;;;4916485;29;20612;-73
2023/09/23 11:43:02;;;;;;;2.77;1.10;;;26.50;80.20;;;;;;4916341;29;20718;-72
2023/09/23 11:45:28;;;;;;;2.37;0.80;;;26.70;80.10;;;;;;4916148;29;20739;-73
2023/09/23 11:47:56;;;;;;;1.40;0.50;;;26.90;80.30;;;;;;4933401;29;20579;-72
2023/09/23 11:50:23;;;;;;;3.13;0.80;;;27.10;80.00;;;;;;4916263;29;20181;-72
2023/09/23 11:52:49;;;;;;;4.60;0.70;;;27.10;78.60;;;;;;4932316;29;20959;-73
2023/09/23 11:55:16;;;;;;;2.27;0.77;;;27.00;76.80;;;;;;4933150;29;20594;-72
2023/09/23 11:57:42;;;;;;;3.20;1.23;;;26.90;76.40;;;;;;4933076;29;20598;-73
2023/09/23 12:00:15;;;;;;;2.37;1.47;;;26.80;76.80;;;;;;4933232;29;20589;-74
2023/09/23 12:02:41;;;;;;;3.50;1.00;;;26.80;77.40;;;;;;4946901;29;20597;-73
2023/09/23 12:05:16;;;;;;;1.80;0.93;;;26.90;77.90;;;;;;4932946;29;20643;-73
2023/09/23 12:07:43;;;;;;;2.77;1.20;;;26.90;77.00;;;;;;4932040;29;20598;-73
2023/09/23 12:10:09;;;;;;;1.77;0.80;;;26.90;76.40;;;;;;4933229;29;20614;-73
2023/09/23 12:12:35;;;;;;;1.70;0.70;;;26.90;76.40;;;;;;4933195;29;20574;-73
2023/09/23 12:15:01;;;;;;;1.93;1.13;;;26.90;76.20;;;;;;4932971;29;20606;-72
2023/09/23 12:17:27;;;;;;;2.10;1.00;;;26.80;75.00;;;;;;4975059;23;20592;-73
2023/09/23 12:19:52;;;;;;;2.30;0.90;;;26.70;74.10;;;;;;4897010;29;20603;-73
2023/09/23 12:22:20;;;;;;;1.70;0.80;;;26.60;73.90;;;;;;4914026;29;20189;-74
2023/09/23 12:24:46;;;;;;;2.60;1.00;;;26.40;73.20;;;;;;4913844;29;20215;-73
2023/09/23 12:27:12;;;;;;;2.17;1.20;;;26.20;73.40;;;;;;4913889;29;20629;-73
2023/09/23 12:29:38;;;;;;;1.90;1.10;;;26.10;72.80;;;;;;4913890;29;20178;-74
2023/09/23 12:32:07;;;;;;;2.77;1.13;;;25.80;71.90;;;;;;4912867;29;20594;-74
2023/09/23 12:34:33;;;;;;;4.47;1.40;;;25.50;72.10;;;;;;4899646;29;20604;-74
2023/09/23 12:36:59;;;;;;;3.50;2.07;;;25.30;72.10;;;;;;4902162;29;20680;-74
2023/09/23 12:39:25;;;;;;;3.33;2.37;;;25.10;72.90;;;;;;4934818;29;20520;-74
2023/09/23 12:41:51;;;;;;;3.50;1.90;;;24.90;73.70;;;;;;4903539;29;20648;-74
2023/09/23 12:44:17;;;;;;;4.70;2.17;;;24.80;73.80;;;;;;4936299;29;20225;-74
2023/09/23 12:46:43;;;;;;;3.10;1.30;;;24.70;74.60;;;;;;4936396;29;20675;-74
2023/09/23 12:49:10;;;;;;;2.30;1.00;;;24.50;74.70;;;;;;4935133;29;20616;-74